sensor_id;sensor_type;location;lat;lon;timestamp;P1;durP1;ratioP1;P2;durP2;ratioP2
60999;SDS011;46879;45.658;11.814;2023-10-31T00:04:46;11.88;;;3.95;;
60999;SDS011;46879;45.658;11.814;2023-10-31T00:09:46;7.97;;;3.10;;
60999;SDS011;46879;45.658;11.814;2023-10-31T00:14:47;10.48;;;3.60;;
60999;SDS011;46879;45.658;11.814;2023-10-31T00:19:48;12.27;;;3.72;;
60999;SDS011;46879;45.658;11.814;2023-10-31T00:24:48;10.27;;;3.60;;
60999;SDS011;46879;45.658;11.814;2023-10-31T00:29:49;7.25;;;3.15;;
60999;SDS011;46879;45.658;11.814;2023-10-31T00:34:49;8.30;;;2.95;;
60999;SDS011;46879;45.658;11.814;2023-10-31T00:39:50;8.98;;;3.35;;
60999;SDS011;46879;45.658;11.814;2023-10-31T00:44:50;7.13;;;2.85;;
60999;SDS011;46879;45.658;11.814;2023-10-31T00:49:51;10.90;;;3.17;;
60999;SDS011;46879;45.658;11.814;2023-10-31T00:54:53;6.63;;;3.08;;
60999;SDS011;46879;45.658;11.814;2023-10-31T00:59:53;9.55;;;3.42;;
60999;SDS011;46879;45.658;11.814;2023-10-31T01:04:54;9.82;;;3.38;;
60999;SDS011;46879;45.658;11.814;2023-10-31T01:09:54;6.38;;;3.13;;
60999;SDS011;46879;45.658;11.814;2023-10-31T01:14:55;7.47;;;2.88;;
60999;SDS011;46879;45.658;11.814;2023-10-31T01:19:55;5.63;;;2.85;;
60999;SDS011;46879;45.658;11.814;2023-10-31T01:24:56;8.77;;;3.05;;
60999;SDS011;46879;45.658;11.814;2023-10-31T01:29:57;10.02;;;3.47;;
60999;SDS011;46879;45.658;11.814;2023-10-31T01:34:57;15.98;;;3.10;;
60999;SDS011;46879;45.658;11.814;2023-10-31T01:39:58;12.05;;;3.28;;
60999;SDS011;46879;45.658;11.814;2023-10-31T01:44:58;4.63;;;2.60;;
60999;SDS011;46879;45.658;11.814;2023-10-31T01:49:59;5.40;;;2.22;;
60999;SDS011;46879;45.658;11.814;2023-10-31T01:55:00;8.35;;;2.60;;
60999;SDS011;46879;45.658;11.814;2023-10-31T02:00:03;12.05;;;2.90;;
60999;SDS011;46879;45.658;11.814;2023-10-31T02:05:05;5.78;;;2.60;;
60999;SDS011;46879;45.658;11.814;2023-10-31T02:10:06;7.10;;;2.83;;
60999;SDS011;46879;45.658;11.814;2023-10-31T02:15:07;5.28;;;2.63;;
60999;SDS011;46879;45.658;11.814;2023-10-31T02:20:09;5.53;;;2.60;;
60999;SDS011;46879;45.658;11.814;2023-10-31T02:25:16;4.95;;;2.22;;
60999;SDS011;46879;45.658;11.814;2023-10-31T02:30:18;4.97;;;2.85;;
60999;SDS011;46879;45.658;11.814;2023-10-31T02:35:18;4.80;;;2.47;;
60999;SDS011;46879;45.658;11.814;2023-10-31T02:40:19;4.15;;;2.10;;
60999;SDS011;46879;45.658;11.814;2023-10-31T02:45:20;4.78;;;2.47;;
60999;SDS011;46879;45.658;11.814;2023-10-31T02:50:20;5.65;;;2.45;;
60999;SDS011;46879;45.658;11.814;2023-10-31T02:55:21;4.03;;;2.03;;
60999;SDS011;46879;45.658;11.814;2023-10-31T03:00:22;4.18;;;2.30;;
60999;SDS011;46879;45.658;11.814;2023-10-31T03:05:22;4.13;;;2.13;;
60999;SDS011;46879;45.658;11.814;2023-10-31T03:10:23;5.97;;;2.60;;
60999;SDS011;46879;45.658;11.814;2023-10-31T03:15:23;3.65;;;2.03;;
60999;SDS011;46879;45.658;11.814;2023-10-31T03:20:24;5.43;;;2.63;;
60999;SDS011;46879;45.658;11.814;2023-10-31T03:25:24;5.28;;;2.40;;
60999;SDS011;46879;45.658;11.814;2023-10-31T03:30:25;4.82;;;2.42;;
60999;SDS011;46879;45.658;11.814;2023-10-31T03:35:26;2.80;;;2.03;;
60999;SDS011;46879;45.658;11.814;2023-10-31T03:40:26;4.30;;;2.38;;
60999;SDS011;46879;45.658;11.814;2023-10-31T03:45:27;3.80;;;2.28;;
60999;SDS011;46879;45.658;11.814;2023-10-31T03:50:27;4.53;;;2.30;;
60999;SDS011;46879;45.658;11.814;2023-10-31T03:55:28;2.92;;;1.90;;
60999;SDS011;46879;45.658;11.814;2023-10-31T04:00:30;3.33;;;2.05;;
60999;SDS011;46879;45.658;11.814;2023-10-31T04:05:30;10.20;;;2.72;;
60999;SDS011;46879;45.658;11.814;2023-10-31T04:10:31;3.75;;;2.25;;
60999;SDS011;46879;45.658;11.814;2023-10-31T04:15:32;2.97;;;1.95;;
60999;SDS011;46879;45.658;11.814;2023-10-31T04:20:34;4.32;;;2.17;;
60999;SDS011;46879;45.658;11.814;2023-10-31T04:25:35;8.98;;;2.00;;
60999;SDS011;46879;45.658;11.814;2023-10-31T04:30:35;6.20;;;2.20;;
60999;SDS011;46879;45.658;11.814;2023-10-31T04:35:36;4.35;;;2.22;;
60999;SDS011;46879;45.658;11.814;2023-10-31T04:40:36;4.07;;;2.42;;
60999;SDS011;46879;45.658;11.814;2023-10-31T04:45:37;7.97;;;2.58;;
60999;SDS011;46879;45.658;11.814;2023-10-31T04:50:38;4.07;;;2.40;;
60999;SDS011;46879;45.658;11.814;2023-10-31T04:55:39;4.45;;;2.10;;
60999;SDS011;46879;45.658;11.814;2023-10-31T05:00:39;3.53;;;1.85;;
60999;SDS011;46879;45.658;11.814;2023-10-31T05:05:40;6.32;;;2.25;;
60999;SDS011;46879;45.658;11.814;2023-10-31T05:10:41;5.28;;;2.25;;
60999;SDS011;46879;45.658;11.814;2023-10-31T05:15:41;2.67;;;1.92;;
60999;SDS011;46879;45.658;11.814;2023-10-31T05:20:42;2.35;;;1.73;;
60999;SDS011;46879;45.658;11.814;2023-10-31T05:25:43;3.63;;;1.90;;
60999;SDS011;46879;45.658;11.814;2023-10-31T05:30:43;2.97;;;1.80;;
60999;SDS011;46879;45.658;11.814;2023-10-31T05:35:44;2.47;;;1.65;;
60999;SDS011;46879;45.658;11.814;2023-10-31T05:40:44;2.80;;;1.80;;
60999;SDS011;46879;45.658;11.814;2023-10-31T05:45:45;3.42;;;2.30;;
60999;SDS011;46879;45.658;11.814;2023-10-31T05:50:46;4.82;;;2.13;;
60999;SDS011;46879;45.658;11.814;2023-10-31T05:55:46;6.30;;;1.90;;
60999;SDS011;46879;45.658;11.814;2023-10-31T06:00:47;2.85;;;1.90;;
60999;SDS011;46879;45.658;11.814;2023-10-31T06:05:47;3.30;;;2.40;;
60999;SDS011;46879;45.658;11.814;2023-10-31T06:10:48;2.67;;;1.80;;
60999;SDS011;46879;45.658;11.814;2023-10-31T06:15:49;3.92;;;1.67;;
60999;SDS011;46879;45.658;11.814;2023-10-31T06:20:49;6.18;;;2.22;;
60999;SDS011;46879;45.658;11.814;2023-10-31T06:25:50;3.25;;;1.88;;
60999;SDS011;46879;45.658;11.814;2023-10-31T06:30:51;2.78;;;1.73;;
60999;SDS011;46879;45.658;11.814;2023-10-31T06:35:51;4.03;;;1.80;;
60999;SDS011;46879;45.658;11.814;2023-10-31T06:40:53;2.45;;;1.58;;
60999;SDS011;46879;45.658;11.814;2023-10-31T06:45:54;3.17;;;1.65;;
60999;SDS011;46879;45.658;11.814;2023-10-31T06:50:55;3.22;;;1.70;;
60999;SDS011;46879;45.658;11.814;2023-10-31T06:55:55;5.38;;;2.45;;
60999;SDS011;46879;45.658;11.814;2023-10-31T07:00:56;4.32;;;1.67;;
60999;SDS011;46879;45.658;11.814;2023-10-31T07:05:58;5.13;;;1.95;;
60999;SDS011;46879;45.658;11.814;2023-10-31T07:10:59;3.40;;;1.65;;
60999;SDS011;46879;45.658;11.814;2023-10-31T07:15:59;2.72;;;1.38;;
60999;SDS011;46879;45.658;11.814;2023-10-31T07:21:00;3.03;;;1.80;;
60999;SDS011;46879;45.658;11.814;2023-10-31T07:26:00;2.40;;;1.60;;
60999;SDS011;46879;45.658;11.814;2023-10-31T07:31:01;2.08;;;1.50;;
60999;SDS011;46879;45.658;11.814;2023-10-31T07:36:02;2.72;;;1.40;;
60999;SDS011;46879;45.658;11.814;2023-10-31T07:41:03;3.47;;;1.90;;
60999;SDS011;46879;45.658;11.814;2023-10-31T07:46:04;1.67;;;1.58;;
60999;SDS011;46879;45.658;11.814;2023-10-31T07:51:05;1.73;;;1.58;;
60999;SDS011;46879;45.658;11.814;2023-10-31T07:56:05;2.58;;;1.50;;
60999;SDS011;46879;45.658;11.814;2023-10-31T08:01:22;3.85;;;1.58;;
60999;SDS011;46879;45.658;11.814;2023-10-31T08:06:23;2.85;;;1.58;;
60999;SDS011;46879;45.658;11.814;2023-10-31T08:11:23;3.80;;;1.48;;
60999;SDS011;46879;45.658;11.814;2023-10-31T08:16:24;2.45;;;1.70;;
60999;SDS011;46879;45.658;11.814;2023-10-31T08:21:25;2.00;;;1.45;;
60999;SDS011;46879;45.658;11.814;2023-10-31T08:26:28;2.50;;;1.90;;
60999;SDS011;46879;45.658;11.814;2023-10-31T08:31:28;2.17;;;1.50;;
60999;SDS011;46879;45.658;11.814;2023-10-31T08:36:29;2.47;;;1.48;;
60999;SDS011;46879;45.658;11.814;2023-10-31T08:41:30;6.85;;;2.20;;
60999;SDS011;46879;45.658;11.814;2023-10-31T08:46:30;1.90;;;1.50;;
60999;SDS011;46879;45.658;11.814;2023-10-31T08:51:31;3.88;;;1.63;;
60999;SDS011;46879;45.658;11.814;2023-10-31T08:56:32;1.88;;;1.67;;
60999;SDS011;46879;45.658;11.814;2023-10-31T09:01:33;3.70;;;1.60;;
60999;SDS011;46879;45.658;11.814;2023-10-31T09:06:33;3.15;;;1.70;;
60999;SDS011;46879;45.658;11.814;2023-10-31T09:11:34;4.68;;;1.92;;
60999;SDS011;46879;45.658;11.814;2023-10-31T09:16:35;3.17;;;1.88;;
60999;SDS011;46879;45.658;11.814;2023-10-31T09:21:35;4.05;;;1.67;;
60999;SDS011;46879;45.658;11.814;2023-10-31T09:26:36;2.92;;;1.40;;
60999;SDS011;46879;45.658;11.814;2023-10-31T09:31:37;7.47;;;1.63;;
60999;SDS011;46879;45.658;11.814;2023-10-31T09:36:38;12.35;;;1.88;;
60999;SDS011;46879;45.658;11.814;2023-10-31T09:41:40;2.40;;;1.40;;
60999;SDS011;46879;45.658;11.814;2023-10-31T09:46:40;3.67;;;1.52;;
60999;SDS011;46879;45.658;11.814;2023-10-31T09:51:41;3.80;;;1.42;;
60999;SDS011;46879;45.658;11.814;2023-10-31T09:56:42;2.67;;;1.45;;
60999;SDS011;46879;45.658;11.814;2023-10-31T10:01:43;4.25;;;1.60;;
60999;SDS011;46879;45.658;11.814;2023-10-31T10:07:00;1.88;;;1.35;;
60999;SDS011;46879;45.658;11.814;2023-10-31T10:12:01;6.45;;;1.55;;
60999;SDS011;46879;45.658;11.814;2023-10-31T10:17:02;5.22;;;1.33;;
60999;SDS011;46879;45.658;11.814;2023-10-31T10:22:21;3.53;;;1.55;;
60999;SDS011;46879;45.658;11.814;2023-10-31T10:27:28;3.85;;;1.52;;
60999;SDS011;46879;45.658;11.814;2023-10-31T10:32:29;3.75;;;1.15;;
60999;SDS011;46879;45.658;11.814;2023-10-31T10:37:30;1.52;;;1.15;;
60999;SDS011;46879;45.658;11.814;2023-10-31T10:42:32;5.40;;;1.30;;
60999;SDS011;46879;45.658;11.814;2023-10-31T10:47:36;1.38;;;1.17;;
60999;SDS011;46879;45.658;11.814;2023-10-31T10:52:49;1.45;;;1.10;;
60999;SDS011;46879;45.658;11.814;2023-10-31T10:58:26;2.92;;;1.02;;
60999;SDS011;46879;45.658;11.814;2023-10-31T11:03:40;4.68;;;1.10;;
60999;SDS011;46879;45.658;11.814;2023-10-31T11:08:41;1.02;;;1.02;;
60999;SDS011;46879;45.658;11.814;2023-10-31T11:13:44;1.02;;;0.82;;
60999;SDS011;46879;45.658;11.814;2023-10-31T11:18:46;0.93;;;0.90;;
60999;SDS011;46879;45.658;11.814;2023-10-31T11:23:46;2.75;;;1.00;;
60999;SDS011;46879;45.658;11.814;2023-10-31T11:29:04;1.33;;;0.70;;
60999;SDS011;46879;45.658;11.814;2023-10-31T11:34:06;0.70;;;0.70;;
60999;SDS011;46879;45.658;11.814;2023-10-31T11:39:24;2.92;;;0.88;;
60999;SDS011;46879;45.658;11.814;2023-10-31T11:44:26;4.97;;;1.00;;
60999;SDS011;46879;45.658;11.814;2023-10-31T11:54:31;1.45;;;0.95;;
60999;SDS011;46879;45.658;11.814;2023-10-31T11:59:38;2.30;;;0.90;;
60999;SDS011;46879;45.658;11.814;2023-10-31T12:04:39;2.58;;;1.00;;
60999;SDS011;46879;45.658;11.814;2023-10-31T12:09:46;0.80;;;0.80;;
60999;SDS011;46879;45.658;11.814;2023-10-31T12:14:48;0.97;;;0.90;;
60999;SDS011;46879;45.658;11.814;2023-10-31T12:19:48;2.25;;;0.95;;
60999;SDS011;46879;45.658;11.814;2023-10-31T12:25:04;1.48;;;1.00;;
60999;SDS011;46879;45.658;11.814;2023-10-31T12:30:09;2.08;;;1.08;;
60999;SDS011;46879;45.658;11.814;2023-10-31T12:35:11;1.52;;;0.90;;
60999;SDS011;46879;45.658;11.814;2023-10-31T12:40:18;3.10;;;1.10;;
60999;SDS011;46879;45.658;11.814;2023-10-31T12:45:20;1.63;;;1.08;;
60999;SDS011;46879;45.658;11.814;2023-10-31T12:50:21;2.42;;;0.98;;
60999;SDS011;46879;45.658;11.814;2023-10-31T12:55:23;1.10;;;1.00;;
60999;SDS011;46879;45.658;11.814;2023-10-31T13:00:32;2.85;;;0.80;;
60999;SDS011;46879;45.658;11.814;2023-10-31T13:05:34;2.33;;;1.17;;
60999;SDS011;46879;45.658;11.814;2023-10-31T13:10:36;2.33;;;1.02;;
60999;SDS011;46879;45.658;11.814;2023-10-31T13:15:36;2.58;;;0.90;;
60999;SDS011;46879;45.658;11.814;2023-10-31T13:20:37;3.47;;;1.23;;
60999;SDS011;46879;45.658;11.814;2023-10-31T13:25:38;1.83;;;0.93;;
60999;SDS011;46879;45.658;11.814;2023-10-31T13:30:39;1.02;;;0.73;;
60999;SDS011;46879;45.658;11.814;2023-10-31T13:35:40;2.92;;;0.95;;
60999;SDS011;46879;45.658;11.814;2023-10-31T13:40:41;6.88;;;1.30;;
60999;SDS011;46879;45.658;11.814;2023-10-31T13:45:41;4.22;;;0.93;;
60999;SDS011;46879;45.658;11.814;2023-10-31T13:50:42;1.35;;;1.05;;
60999;SDS011;46879;45.658;11.814;2023-10-31T13:55:42;1.83;;;1.38;;
60999;SDS011;46879;45.658;11.814;2023-10-31T14:00:43;1.02;;;0.90;;
60999;SDS011;46879;45.658;11.814;2023-10-31T14:05:47;2.83;;;0.70;;
60999;SDS011;46879;45.658;11.814;2023-10-31T14:10:48;1.13;;;0.88;;
60999;SDS011;46879;45.658;11.814;2023-10-31T14:15:48;3.15;;;1.20;;
60999;SDS011;46879;45.658;11.814;2023-10-31T14:20:49;1.55;;;0.90;;
60999;SDS011;46879;45.658;11.814;2023-10-31T14:25:49;1.35;;;0.90;;
60999;SDS011;46879;45.658;11.814;2023-10-31T14:30:50;1.00;;;1.00;;
60999;SDS011;46879;45.658;11.814;2023-10-31T14:35:52;2.80;;;1.00;;
60999;SDS011;46879;45.658;11.814;2023-10-31T14:40:52;20.58;;;1.90;;
60999;SDS011;46879;45.658;11.814;2023-10-31T14:45:53;9.43;;;1.20;;
60999;SDS011;46879;45.658;11.814;2023-10-31T14:50:54;2.83;;;1.10;;
60999;SDS011;46879;45.658;11.814;2023-10-31T14:55:56;1.73;;;1.17;;
60999;SDS011;46879;45.658;11.814;2023-10-31T15:00:57;5.78;;;1.00;;
60999;SDS011;46879;45.658;11.814;2023-10-31T15:05:58;1.25;;;1.15;;
60999;SDS011;46879;45.658;11.814;2023-10-31T15:10:59;5.63;;;1.40;;
60999;SDS011;46879;45.658;11.814;2023-10-31T15:15:59;2.30;;;1.33;;
60999;SDS011;46879;45.658;11.814;2023-10-31T15:21:00;1.67;;;1.13;;
60999;SDS011;46879;45.658;11.814;2023-10-31T15:26:01;1.13;;;1.00;;
60999;SDS011;46879;45.658;11.814;2023-10-31T15:31:02;1.52;;;1.33;;
60999;SDS011;46879;45.658;11.814;2023-10-31T15:36:03;1.23;;;1.10;;
60999;SDS011;46879;45.658;11.814;2023-10-31T15:41:05;1.63;;;0.90;;
60999;SDS011;46879;45.658;11.814;2023-10-31T15:46:06;0.93;;;0.90;;
60999;SDS011;46879;45.658;11.814;2023-10-31T15:51:07;1.60;;;0.95;;
60999;SDS011;46879;45.658;11.814;2023-10-31T15:56:07;1.77;;;1.20;;
60999;SDS011;46879;45.658;11.814;2023-10-31T16:01:09;3.65;;;1.48;;
60999;SDS011;46879;45.658;11.814;2023-10-31T16:06:10;1.25;;;1.00;;
60999;SDS011;46879;45.658;11.814;2023-10-31T16:11:11;2.80;;;1.25;;
60999;SDS011;46879;45.658;11.814;2023-10-31T16:16:12;2.03;;;1.20;;
60999;SDS011;46879;45.658;11.814;2023-10-31T16:21:19;4.15;;;1.23;;
60999;SDS011;46879;45.658;11.814;2023-10-31T16:26:21;1.77;;;1.10;;
60999;SDS011;46879;45.658;11.814;2023-10-31T16:31:23;0.90;;;0.90;;
60999;SDS011;46879;45.658;11.814;2023-10-31T16:36:24;1.25;;;0.93;;
60999;SDS011;46879;45.658;11.814;2023-10-31T16:41:24;5.07;;;0.80;;
60999;SDS011;46879;45.658;11.814;2023-10-31T16:46:26;1.52;;;1.00;;
60999;SDS011;46879;45.658;11.814;2023-10-31T16:51:26;0.98;;;0.93;;
60999;SDS011;46879;45.658;11.814;2023-10-31T16:56:28;1.30;;;0.98;;
60999;SDS011;46879;45.658;11.814;2023-10-31T17:01:29;1.40;;;1.30;;
60999;SDS011;46879;45.658;11.814;2023-10-31T17:06:30;3.42;;;0.90;;
60999;SDS011;46879;45.658;11.814;2023-10-31T17:11:31;1.10;;;1.00;;
60999;SDS011;46879;45.658;11.814;2023-10-31T17:16:32;1.75;;;1.00;;
60999;SDS011;46879;45.658;11.814;2023-10-31T17:21:32;1.63;;;1.10;;
60999;SDS011;46879;45.658;11.814;2023-10-31T17:26:33;1.45;;;1.10;;
60999;SDS011;46879;45.658;11.814;2023-10-31T17:31:33;1.50;;;0.95;;
60999;SDS011;46879;45.658;11.814;2023-10-31T17:36:38;3.08;;;1.10;;
60999;SDS011;46879;45.658;11.814;2023-10-31T17:41:40;1.50;;;1.13;;
60999;SDS011;46879;45.658;11.814;2023-10-31T17:46:40;1.52;;;1.10;;
60999;SDS011;46879;45.658;11.814;2023-10-31T17:51:41;1.05;;;1.00;;
60999;SDS011;46879;45.658;11.814;2023-10-31T17:56:43;2.53;;;1.30;;
60999;SDS011;46879;45.658;11.814;2023-10-31T18:01:43;2.05;;;0.90;;
60999;SDS011;46879;45.658;11.814;2023-10-31T18:06:44;2.50;;;1.20;;
60999;SDS011;46879;45.658;11.814;2023-10-31T18:11:45;1.05;;;0.95;;
60999;SDS011;46879;45.658;11.814;2023-10-31T18:16:46;2.05;;;1.10;;
60999;SDS011;46879;45.658;11.814;2023-10-31T18:21:47;1.38;;;1.27;;
60999;SDS011;46879;45.658;11.814;2023-10-31T18:26:47;1.40;;;1.30;;
60999;SDS011;46879;45.658;11.814;2023-10-31T18:31:48;1.42;;;1.10;;
60999;SDS011;46879;45.658;11.814;2023-10-31T18:36:49;2.05;;;1.50;;
60999;SDS011;46879;45.658;11.814;2023-10-31T18:41:49;1.10;;;1.00;;
60999;SDS011;46879;45.658;11.814;2023-10-31T18:46:50;2.45;;;1.20;;
60999;SDS011;46879;45.658;11.814;2023-10-31T18:51:50;2.58;;;1.25;;
60999;SDS011;46879;45.658;11.814;2023-10-31T18:56:51;3.00;;;1.65;;
60999;SDS011;46879;45.658;11.814;2023-10-31T19:01:56;8.77;;;2.80;;
60999;SDS011;46879;45.658;11.814;2023-10-31T19:06:58;4.93;;;2.65;;
60999;SDS011;46879;45.658;11.814;2023-10-31T19:11:59;7.97;;;3.42;;
60999;SDS011;46879;45.658;11.814;2023-10-31T19:16:59;11.85;;;4.00;;
60999;SDS011;46879;45.658;11.814;2023-10-31T19:22:00;12.43;;;4.10;;
60999;SDS011;46879;45.658;11.814;2023-10-31T19:27:00;10.63;;;4.35;;
60999;SDS011;46879;45.658;11.814;2023-10-31T19:32:02;14.45;;;5.50;;
60999;SDS011;46879;45.658;11.814;2023-10-31T19:37:03;15.98;;;4.47;;
60999;SDS011;46879;45.658;11.814;2023-10-31T19:42:04;22.48;;;5.28;;
60999;SDS011;46879;45.658;11.814;2023-10-31T19:47:06;16.15;;;4.97;;
60999;SDS011;46879;45.658;11.814;2023-10-31T19:52:06;20.17;;;4.55;;
60999;SDS011;46879;45.658;11.814;2023-10-31T19:57:07;12.32;;;5.13;;
60999;SDS011;46879;45.658;11.814;2023-10-31T20:02:07;17.35;;;4.93;;
60999;SDS011;46879;45.658;11.814;2023-10-31T20:07:08;17.70;;;4.57;;
60999;SDS011;46879;45.658;11.814;2023-10-31T20:12:09;13.73;;;5.25;;
60999;SDS011;46879;45.658;11.814;2023-10-31T20:17:10;21.92;;;4.93;;
60999;SDS011;46879;45.658;11.814;2023-10-31T20:22:11;15.27;;;4.18;;
60999;SDS011;46879;45.658;11.814;2023-10-31T20:27:11;22.52;;;4.68;;
60999;SDS011;46879;45.658;11.814;2023-10-31T20:32:12;18.65;;;4.82;;
60999;SDS011;46879;45.658;11.814;2023-10-31T20:37:13;17.33;;;6.47;;
60999;SDS011;46879;45.658;11.814;2023-10-31T20:42:13;17.40;;;5.45;;
60999;SDS011;46879;45.658;11.814;2023-10-31T20:47:14;24.83;;;5.85;;
60999;SDS011;46879;45.658;11.814;2023-10-31T20:52:14;20.48;;;5.25;;
60999;SDS011;46879;45.658;11.814;2023-10-31T20:57:15;17.52;;;5.45;;
60999;SDS011;46879;45.658;11.814;2023-10-31T21:02:16;20.05;;;5.43;;
60999;SDS011;46879;45.658;11.814;2023-10-31T21:07:18;14.25;;;4.80;;
60999;SDS011;46879;45.658;11.814;2023-10-31T21:12:19;19.98;;;5.07;;
60999;SDS011;46879;45.658;11.814;2023-10-31T21:17:19;12.48;;;4.90;;
60999;SDS011;46879;45.658;11.814;2023-10-31T21:22:20;17.63;;;5.53;;
60999;SDS011;46879;45.658;11.814;2023-10-31T21:27:21;16.05;;;4.70;;
60999;SDS011;46879;45.658;11.814;2023-10-31T21:32:22;14.85;;;5.70;;
60999;SDS011;46879;45.658;11.814;2023-10-31T21:37:23;14.65;;;5.55;;
60999;SDS011;46879;45.658;11.814;2023-10-31T21:42:23;16.58;;;5.18;;
60999;SDS011;46879;45.658;11.814;2023-10-31T21:47:24;16.25;;;5.28;;
60999;SDS011;46879;45.658;11.814;2023-10-31T21:52:24;13.20;;;5.05;;
60999;SDS011;46879;45.658;11.814;2023-10-31T21:57:25;14.02;;;4.95;;
60999;SDS011;46879;45.658;11.814;2023-10-31T22:02:26;13.95;;;5.38;;
60999;SDS011;46879;45.658;11.814;2023-10-31T22:07:27;17.23;;;5.35;;
60999;SDS011;46879;45.658;11.814;2023-10-31T22:12:28;13.23;;;4.50;;
60999;SDS011;46879;45.658;11.814;2023-10-31T22:17:29;11.93;;;5.13;;
60999;SDS011;46879;45.658;11.814;2023-10-31T22:22:30;19.27;;;5.32;;
60999;SDS011;46879;45.658;11.814;2023-10-31T22:27:33;22.92;;;5.20;;
60999;SDS011;46879;45.658;11.814;2023-10-31T22:32:35;14.73;;;4.72;;
60999;SDS011;46879;45.658;11.814;2023-10-31T22:37:36;10.45;;;4.50;;
60999;SDS011;46879;45.658;11.814;2023-10-31T22:42:37;8.95;;;4.35;;
60999;SDS011;46879;45.658;11.814;2023-10-31T22:47:38;10.98;;;5.07;;
60999;SDS011;46879;45.658;11.814;2023-10-31T22:52:39;10.95;;;3.88;;
60999;SDS011;46879;45.658;11.814;2023-10-31T22:57:39;11.77;;;4.45;;
60999;SDS011;46879;45.658;11.814;2023-10-31T23:02:40;10.40;;;5.13;;
60999;SDS011;46879;45.658;11.814;2023-10-31T23:07:41;14.95;;;4.20;;
60999;SDS011;46879;45.658;11.814;2023-10-31T23:12:42;9.43;;;4.22;;
60999;SDS011;46879;45.658;11.814;2023-10-31T23:17:44;7.50;;;4.20;;
60999;SDS011;46879;45.658;11.814;2023-10-31T23:22:45;6.90;;;3.50;;
60999;SDS011;46879;45.658;11.814;2023-10-31T23:27:46;9.60;;;4.40;;
60999;SDS011;46879;45.658;11.814;2023-10-31T23:32:46;13.50;;;4.45;;
60999;SDS011;46879;45.658;11.814;2023-10-31T23:37:47;8.70;;;4.43;;
60999;SDS011;46879;45.658;11.814;2023-10-31T23:42:48;12.38;;;4.20;;
60999;SDS011;46879;45.658;11.814;2023-10-31T23:47:48;9.70;;;4.28;;
60999;SDS011;46879;45.658;11.814;2023-10-31T23:52:49;9.35;;;4.28;;
60999;SDS011;46879;45.658;11.814;2023-10-31T23:57:50;8.98;;;4.30;;
